Time;durP1;ratioP1;P1;durP2;ratioP2;P2;SDS_P1;SDS_P2;PMS_P1;PMS_P2;Temp;Humidity;BMP_temperature;BMP_pressure;BME280_temperature;BME280_humidity;BME280_pressure;Samples;Min_cycle;Max_cycle;Signal;HPM_P1;HPM_P2
2024/03/02 00:00:21;;;;;;;1.52;1.40;;;9.60;93.20;;;;;;5093910;28;20324;-36
2024/03/02 00:02:49;;;;;;;1.98;1.30;;;9.60;93.10;;;;;;5093955;28;20028;-35
2024/03/02 00:05:19;;;;;;;1.60;1.20;;;9.60;93.10;;;;;;5093836;28;20028;-36
2024/03/02 00:07:55;;;;;;;2.70;1.48;;;9.60;93.00;;;;;;5093507;28;20024;-36
2024/03/02 00:10:31;;;;;;;2.15;1.33;;;9.60;92.90;;;;;;5094016;28;20020;-36
2024/03/02 00:12:57;;;;;;;1.60;1.20;;;9.60;92.90;;;;;;5092458;28;20020;-36
2024/03/02 00:15:42;;;;;;;3.80;1.50;;;9.60;92.90;;;;;;5093974;28;20365;-37
2024/03/02 00:18:11;;;;;;;3.00;1.33;;;9.70;93.00;;;;;;5093484;28;20109;-36
2024/03/02 00:20:37;;;;;;;2.25;1.25;;;9.70;92.80;;;;;;5092519;28;20030;-36
2024/03/02 00:23:07;;;;;;;2.45;1.40;;;9.70;92.90;;;;;;5093825;28;20465;-36
2024/03/02 00:25:53;;;;;;;1.50;1.20;;;9.70;92.50;;;;;;5093536;28;20032;-37
2024/03/02 00:28:35;;;;;;;2.83;1.40;;;9.70;92.80;;;;;;5093563;28;20177;-35
2024/03/02 00:31:19;;;;;;;1.95;1.20;;;9.70;93.10;;;;;;5093428;28;20098;-36
2024/03/02 00:33:46;;;;;;;1.98;1.30;;;9.60;92.90;;;;;;5093167;28;20425;-36
2024/03/02 00:36:14;;;;;;;1.65;1.17;;;9.60;93.20;;;;;;5093881;28;20020;-36
2024/03/02 00:38:45;;;;;;;3.28;1.40;;;9.70;92.90;;;;;;5092961;28;20016;-37
2024/03/02 00:41:36;;;;;;;1.45;1.27;;;9.70;92.80;;;;;;5092960;28;20036;-36
2024/03/02 00:44:03;;;;;;;2.33;1.48;;;9.70;92.70;;;;;;5092845;28;20442;-37
2024/03/02 00:46:33;;;;;;;1.77;1.13;;;9.70;92.80;;;;;;5093436;28;20012;-39
2024/03/02 00:49:01;;;;;;;2.40;1.15;;;9.70;92.80;;;;;;5092732;28;20043;-37
2024/03/02 00:51:29;;;;;;;1.90;1.40;;;9.80;92.80;;;;;;5093415;28;20027;-34
2024/03/02 00:53:58;;;;;;;2.28;1.33;;;9.80;92.70;;;;;;5093148;28;20484;-38
2024/03/02 00:56:24;;;;;;;1.83;1.48;;;9.80;92.70;;;;;;5092815;28;20028;-39
2024/03/02 00:58:51;;;;;;;2.08;1.40;;;9.80;92.30;;;;;;5092795;28;20104;-34
2024/03/02 01:01:17;;;;;;;1.45;1.00;;;9.80;92.30;;;;;;5092795;28;20030;-37
2024/03/02 01:03:43;;;;;;;1.55;1.08;;;9.80;92.30;;;;;;5091378;28;20032;-38
2024/03/02 01:06:09;;;;;;;1.10;0.98;;;9.80;92.50;;;;;;5092575;28;20024;-36
2024/03/02 01:08:38;;;;;;;2.00;1.30;;;9.80;92.40;;;;;;5092456;28;20036;-36
2024/03/02 01:11:04;;;;;;;2.60;1.20;;;9.80;92.40;;;;;;5093088;28;20085;-45
2024/03/02 01:13:30;;;;;;;1.33;1.10;;;9.80;92.40;;;;;;5091337;28;20103;-33
2024/03/02 01:15:56;;;;;;;1.90;1.30;;;9.80;92.30;;;;;;5092820;28;20054;-35
2024/03/02 01:18:22;;;;;;;1.10;1.00;;;9.80;92.20;;;;;;5092835;28;20035;-37
2024/03/02 01:20:51;;;;;;;1.20;1.10;;;9.80;91.80;;;;;;5092480;28;20028;-36
2024/03/02 01:23:17;;;;;;;1.60;1.10;;;9.80;91.50;;;;;;5092498;28;20063;-36
2024/03/02 01:25:43;;;;;;;1.13;0.98;;;9.80;91.20;;;;;;5092007;28;20051;-34
2024/03/02 01:28:08;;;;;;;1.58;1.30;;;9.80;91.00;;;;;;5092304;28;20048;-35
2024/03/02 01:30:34;;;;;;;1.55;1.10;;;9.90;90.70;;;;;;5092485;28;20052;-37
2024/03/02 01:33:02;;;;;;;4.97;1.20;;;9.90;90.50;;;;;;5092404;28;20379;-36
2024/03/02 01:35:27;;;;;;;2.78;1.00;;;9.90;90.30;;;;;;5092165;28;20047;-37
2024/03/02 01:37:53;;;;;;;2.28;0.98;;;9.90;90.10;;;;;;5092232;28;20020;-38
2024/03/02 01:40:20;;;;;;;1.73;1.00;;;9.90;89.70;;;;;;5092125;28;20020;-36
2024/03/02 01:42:45;;;;;;;2.42;0.90;;;9.90;89.30;;;;;;5092272;28;20116;-36
2024/03/02 01:45:11;;;;;;;1.15;0.90;;;9.90;89.60;;;;;;5092559;28;20471;-37
2024/03/02 01:47:37;;;;;;;1.55;0.88;;;9.90;88.50;;;;;;5091785;28;20036;-37
2024/03/02 01:50:02;;;;;;;0.88;0.68;;;10.00;88.30;;;;;;5091897;28;20077;-37
2024/03/02 01:52:29;;;;;;;0.70;0.50;;;9.90;88.10;;;;;;5092105;28;20468;-40
2024/03/02 01:54:54;;;;;;;0.95;0.50;;;9.90;88.10;;;;;;5092211;28;20027;-37
2024/03/02 01:57:20;;;;;;;0.50;0.50;;;9.90;87.80;;;;;;5091772;28;20472;-35
2024/03/02 01:59:50;;;;;;;1.05;0.43;;;10.00;87.80;;;;;;5091800;28;20012;-37
2024/03/02 02:02:16;;;;;;;0.65;0.38;;;10.00;87.70;;;;;;5091477;28;20316;-36
2024/03/02 02:04:41;;;;;;;0.50;0.30;;;10.00;87.60;;;;;;5091678;28;20534;-37
2024/03/02 02:07:07;;;;;;;0.95;0.55;;;9.90;87.50;;;;;;5091793;28;20372;-34
2024/03/02 02:09:33;;;;;;;0.47;0.35;;;9.90;87.30;;;;;;5091991;28;20082;-36
2024/03/02 02:11:59;;;;;;;0.20;0.20;;;9.90;87.30;;;;;;5092138;28;20020;-36
2024/03/02 02:14:24;;;;;;;0.40;0.40;;;9.90;87.20;;;;;;5091975;28;20410;-38
2024/03/02 02:16:50;;;;;;;0.30;0.30;;;9.90;87.10;;;;;;5091954;28;20054;-35
2024/03/02 02:19:16;;;;;;;0.17;0.17;;;9.90;87.10;;;;;;5091693;28;20373;-38
2024/03/02 02:21:44;;;;;;;0.40;0.40;;;9.90;87.00;;;;;;5092223;28;20452;-36
2024/03/02 02:24:10;;;;;;;0.88;0.35;;;9.90;87.00;;;;;;5091450;28;20024;-35
2024/03/02 02:26:36;;;;;;;1.05;0.30;;;9.90;86.80;;;;;;5091968;28;20024;-38
2024/03/02 02:29:02;;;;;;;0.43;0.43;;;9.80;86.70;;;;;;5091420;28;20028;-35
2024/03/02 02:31:36;;;;;;;0.73;0.38;;;9.90;86.70;;;;;;5091625;28;20036;-33
2024/03/02 02:34:01;;;;;;;0.63;0.40;;;9.90;86.70;;;;;;5091377;28;20408;-35
2024/03/02 02:36:27;;;;;;;0.40;0.20;;;9.90;86.60;;;;;;5092932;28;20024;-36
2024/03/02 02:38:53;;;;;;;0.38;0.35;;;9.90;86.60;;;;;;5095514;28;20030;-35
2024/03/02 02:41:18;;;;;;;0.50;0.32;;;9.80;86.60;;;;;;5095542;28;20027;-35
2024/03/02 02:43:44;;;;;;;0.30;0.30;;;9.80;86.60;;;;;;5095426;28;20042;-37
2024/03/02 02:46:09;;;;;;;0.73;0.25;;;9.80;86.50;;;;;;5095361;28;20079;-35
2024/03/02 02:48:35;;;;;;;0.30;0.30;;;9.90;86.40;;;;;;5095441;28;20024;-37
2024/03/02 02:51:00;;;;;;;0.70;0.38;;;9.80;86.20;;;;;;5095792;28;20051;-36
2024/03/02 02:53:26;;;;;;;0.50;0.30;;;9.80;86.00;;;;;;5096025;28;20081;-38
2024/03/02 02:55:52;;;;;;;1.63;0.30;;;9.80;85.90;;;;;;5095180;28;20079;-34
2024/03/02 02:58:17;;;;;;;0.30;0.20;;;9.80;85.90;;;;;;5095025;28;20020;-36
2024/03/02 03:00:43;;;;;;;0.20;0.20;;;9.80;85.90;;;;;;5095246;28;20024;-36
2024/03/02 03:03:08;;;;;;;0.40;0.30;;;9.80;85.90;;;;;;5095098;28;20034;-35
2024/03/02 03:05:34;;;;;;;0.85;0.30;;;9.80;85.80;;;;;;5095033;28;20494;-37
2024/03/02 03:07:59;;;;;;;0.57;0.20;;;9.80;85.70;;;;;;5094972;28;20028;-35
2024/03/02 03:10:27;;;;;;;0.30;0.30;;;9.70;85.90;;;;;;5095083;28;20024;-35
2024/03/02 03:12:53;;;;;;;0.30;0.17;;;9.70;85.90;;;;;;5094969;28;20035;-38
2024/03/02 03:15:18;;;;;;;0.55;0.30;;;9.70;85.80;;;;;;5095051;28;20020;-37
2024/03/02 03:17:45;;;;;;;0.20;0.20;;;9.70;85.80;;;;;;5095074;28;20020;-38
2024/03/02 03:20:12;;;;;;;0.20;0.20;;;9.70;85.70;;;;;;5093462;28;20020;-37
2024/03/02 03:22:38;;;;;;;0.15;0.10;;;9.70;85.50;;;;;;5095042;28;20057;-36
2024/03/02 03:25:04;;;;;;;0.45;0.20;;;9.70;85.40;;;;;;5094903;28;20067;-37
2024/03/02 03:27:30;;;;;;;0.77;0.30;;;9.70;85.40;;;;;;5094623;28;20054;-35
2024/03/02 03:29:55;;;;;;;0.45;0.20;;;9.60;85.30;;;;;;5094790;28;20059;-37
2024/03/02 03:32:21;;;;;;;1.20;0.20;;;9.70;85.20;;;;;;5093513;28;20020;-36
2024/03/02 03:34:48;;;;;;;0.17;0.17;;;9.60;85.10;;;;;;5094655;28;20035;-37
2024/03/02 03:37:14;;;;;;;1.42;0.28;;;9.60;85.10;;;;;;5094709;28;20392;-37
2024/03/02 03:39:39;;;;;;;0.20;0.20;;;9.50;85.10;;;;;;5094694;28;20020;-43
2024/03/02 03:42:05;;;;;;;0.90;0.30;;;9.60;85.10;;;;;;5094497;28;20028;-40
2024/03/02 03:44:31;;;;;;;1.35;0.35;;;9.60;85.10;;;;;;5094372;28;20171;-36
2024/03/02 03:46:56;;;;;;;0.43;0.32;;;9.60;85.00;;;;;;5094214;28;20038;-37
2024/03/02 03:49:22;;;;;;;0.20;0.20;;;9.60;85.10;;;;;;5094366;28;20028;-37
2024/03/02 03:51:48;;;;;;;1.60;0.30;;;9.50;85.00;;;;;;5094553;28;20368;-36
2024/03/02 03:54:13;;;;;;;0.10;0.10;;;9.50;84.90;;;;;;5092806;28;20375;-39
2024/03/02 03:56:39;;;;;;;0.47;0.20;;;9.40;84.90;;;;;;5094125;28;20070;-35
2024/03/02 03:59:04;;;;;;;0.20;0.20;;;9.50;85.10;;;;;;5093987;28;20170;-37
2024/03/02 04:01:31;;;;;;;1.33;0.30;;;9.40;85.20;;;;;;5093874;28;20032;-35
2024/03/02 04:03:57;;;;;;;0.13;0.13;;;9.40;85.30;;;;;;5092715;28;20413;-36
2024/03/02 04:06:23;;;;;;;0.40;0.40;;;9.40;85.40;;;;;;5093927;28;20478;-36
2024/03/02 04:08:48;;;;;;;0.25;0.20;;;9.40;85.50;;;;;;5093752;28;20033;-36
2024/03/02 04:11:14;;;;;;;0.50;0.30;;;9.30;85.40;;;;;;5093860;28;20028;-36
2024/03/02 04:13:40;;;;;;;1.00;0.40;;;9.30;85.50;;;;;;5094104;28;20028;-37
2024/03/02 04:16:05;;;;;;;0.30;0.20;;;9.30;85.50;;;;;;5093822;28;20031;-41
2024/03/02 04:18:32;;;;;;;0.50;0.30;;;9.30;85.50;;;;;;5093702;28;20473;-37
2024/03/02 04:20:59;;;;;;;1.08;0.38;;;9.30;85.50;;;;;;5094130;28;20028;-37
2024/03/02 04:23:25;;;;;;;0.30;0.30;;;9.30;85.50;;;;;;5093872;28;20487;-37
2024/03/02 04:25:50;;;;;;;0.10;0.10;;;9.30;85.40;;;;;;5093682;28;20031;-37
2024/03/02 04:28:17;;;;;;;0.32;0.30;;;9.30;85.40;;;;;;5093422;28;20024;-38
2024/03/02 04:30:42;;;;;;;0.40;0.25;;;9.30;85.40;;;;;;5093555;28;20391;-47
2024/03/02 04:33:09;;;;;;;0.20;0.20;;;9.20;85.40;;;;;;5093362;28;20093;-37
2024/03/02 04:35:36;;;;;;;0.40;0.20;;;9.20;85.40;;;;;;5093155;28;20059;-42
2024/03/02 04:38:01;;;;;;;0.17;0.17;;;9.20;85.50;;;;;;5092092;28;20024;-36
2024/03/02 04:40:27;;;;;;;0.43;0.35;;;9.20;85.50;;;;;;5093388;28;20020;-35
2024/03/02 04:42:53;;;;;;;0.40;0.25;;;9.20;85.50;;;;;;5093291;28;20077;-37
2024/03/02 04:45:18;;;;;;;0.40;0.40;;;9.20;85.40;;;;;;5093141;28;20028;-36
2024/03/02 04:47:44;;;;;;;0.28;0.20;;;9.20;85.50;;;;;;5093249;28;20020;-37
2024/03/02 04:50:10;;;;;;;0.20;0.20;;;9.20;85.50;;;;;;5093169;28;20419;-36
2024/03/02 04:52:36;;;;;;;0.30;0.20;;;9.10;85.50;;;;;;5093296;28;20024;-37
2024/03/02 04:55:29;;;;;;;0.90;0.30;;;9.10;85.60;;;;;;5093058;28;20081;-34
2024/03/02 04:57:55;;;;;;;0.20;0.20;;;9.00;85.70;;;;;;5092899;28;20062;-37
2024/03/02 05:00:21;;;;;;;0.55;0.40;;;9.00;85.80;;;;;;5092126;28;20034;-36
2024/03/02 05:02:47;;;;;;;0.32;0.30;;;8.90;85.80;;;;;;5092955;28;20024;-37
2024/03/02 05:05:14;;;;;;;0.73;0.30;;;8.90;85.90;;;;;;5091515;28;20024;-35
2024/03/02 05:07:42;;;;;;;0.20;0.20;;;8.80;85.90;;;;;;5092634;28;20089;-37
2024/03/02 05:10:08;;;;;;;0.63;0.40;;;8.80;86.10;;;;;;5092904;28;20055;-36
2024/03/02 05:15:13;;;;;;;0.13;0.13;;;8.60;86.20;;;;;;5092845;28;20103;-35
2024/03/02 05:17:45;;;;;;;0.77;0.30;;;8.70;86.20;;;;;;5092381;28;20024;-37
2024/03/02 05:20:11;;;;;;;1.17;0.32;;;8.60;86.30;;;;;;5091183;28;20024;-37
2024/03/02 05:22:37;;;;;;;0.60;0.50;;;8.60;86.30;;;;;;5092518;28;20460;-37
2024/03/02 05:25:04;;;;;;;1.48;0.50;;;8.60;86.30;;;;;;5092522;28;20396;-34
2024/03/02 05:27:30;;;;;;;1.45;0.30;;;8.50;86.30;;;;;;5092336;28;20032;-36
2024/03/02 05:29:56;;;;;;;1.38;0.50;;;8.50;86.40;;;;;;5092768;28;20016;-41
2024/03/02 05:32:21;;;;;;;0.98;0.30;;;8.60;86.40;;;;;;5092396;28;20558;-36
2024/03/02 05:34:47;;;;;;;0.63;0.30;;;8.50;86.30;;;;;;5092192;28;20040;-37
2024/03/02 05:37:13;;;;;;;0.68;0.30;;;8.50;86.30;;;;;;5092135;28;20075;-35
2024/03/02 05:39:38;;;;;;;0.75;0.40;;;8.50;86.30;;;;;;5092251;28;20061;-37
2024/03/02 05:42:04;;;;;;;0.38;0.30;;;8.50;86.30;;;;;;5092137;28;20031;-37
2024/03/02 05:44:29;;;;;;;0.40;0.40;;;8.40;86.20;;;;;;5092109;28;20519;-36
2024/03/02 05:46:55;;;;;;;1.10;0.40;;;8.40;86.30;;;;;;5092785;28;20115;-37
2024/03/02 05:49:21;;;;;;;0.30;0.30;;;8.40;86.30;;;;;;5092118;28;20483;-37
2024/03/02 05:51:47;;;;;;;2.92;0.32;;;8.30;86.30;;;;;;5092021;28;20024;-38
2024/03/02 05:54:13;;;;;;;0.63;0.30;;;8.30;86.30;;;;;;5091917;28;20050;-36
2024/03/02 05:56:39;;;;;;;1.20;0.50;;;8.30;86.40;;;;;;5092029;28;20099;-38
2024/03/02 05:59:12;;;;;;;0.38;0.20;;;8.20;86.40;;;;;;5091927;28;20027;-37
2024/03/02 06:01:47;;;;;;;1.17;0.40;;;8.20;86.40;;;;;;5092195;28;20028;-36
2024/03/02 06:04:14;;;;;;;0.52;0.40;;;8.20;86.40;;;;;;5091966;28;20464;-36
2024/03/02 06:06:40;;;;;;;0.22;0.22;;;8.20;86.40;;;;;;5091729;28;20054;-37
2024/03/02 06:09:07;;;;;;;1.10;0.50;;;8.20;86.50;;;;;;5091978;28;20111;-45
2024/03/02 06:11:37;;;;;;;1.55;0.47;;;8.20;86.50;;;;;;5091465;28;20027;-35
2024/03/02 06:14:04;;;;;;;1.30;0.35;;;8.10;86.40;;;;;;5091619;28;20031;-35
2024/03/02 06:16:29;;;;;;;0.45;0.25;;;8.10;86.50;;;;;;5091698;28;20017;-37
2024/03/02 06:18:57;;;;;;;0.77;0.47;;;8.10;86.50;;;;;;5091787;28;20361;-37
2024/03/02 06:21:26;;;;;;;0.95;0.30;;;8.10;86.60;;;;;;5091497;28;20027;-36
2024/03/02 06:23:52;;;;;;;0.88;0.30;;;8.10;86.50;;;;;;5091597;28;20303;-37
2024/03/02 06:26:18;;;;;;;1.13;0.50;;;8.00;86.50;;;;;;5091503;28;20143;-37
2024/03/02 06:28:44;;;;;;;1.08;0.50;;;8.00;86.50;;;;;;5091634;28;20020;-37
2024/03/02 06:31:09;;;;;;;1.83;0.60;;;8.00;86.50;;;;;;5091567;28;20028;-35
2024/03/02 06:33:35;;;;;;;1.33;0.55;;;8.00;86.60;;;;;;5091281;28;20464;-36
2024/03/02 06:36:01;;;;;;;1.95;0.60;;;8.00;86.60;;;;;;5091419;28;20074;-34
2024/03/02 06:38:27;;;;;;;1.65;0.50;;;8.00;86.60;;;;;;5091267;28;20468;-36
2024/03/02 06:40:53;;;;;;;1.67;0.50;;;8.00;86.60;;;;;;5091788;28;20023;-35
2024/03/02 06:43:23;;;;;;;2.05;0.50;;;8.00;86.60;;;;;;5091256;28;20053;-34
2024/03/02 06:45:49;;;;;;;0.68;0.40;;;8.10;87.20;;;;;;5091566;28;20036;-38
2024/03/02 06:48:18;;;;;;;0.85;0.57;;;8.20;86.40;;;;;;5091437;28;20023;-38
2024/03/02 06:50:44;;;;;;;0.50;0.40;;;8.30;86.20;;;;;;5091213;28;20031;-36
2024/03/02 06:53:09;;;;;;;0.40;0.40;;;8.30;86.60;;;;;;5091321;28;20028;-37
2024/03/02 06:55:35;;;;;;;0.52;0.40;;;8.30;85.90;;;;;;5091185;28;20016;-37
2024/03/02 06:58:00;;;;;;;0.85;0.47;;;8.40;85.90;;;;;;5091281;28;20036;-37
2024/03/02 07:00:26;;;;;;;0.68;0.40;;;8.40;85.80;;;;;;5089950;28;20387;-35
2024/03/02 07:02:52;;;;;;;0.52;0.40;;;8.50;85.70;;;;;;5091647;28;20024;-37
2024/03/02 07:05:17;;;;;;;1.30;0.63;;;8.60;85.50;;;;;;5091285;28;20107;-36
2024/03/02 07:07:43;;;;;;;0.70;0.38;;;8.60;85.40;;;;;;5091517;28;20028;-36
2024/03/02 07:10:09;;;;;;;0.73;0.40;;;8.70;85.30;;;;;;5091700;28;20009;-35
2024/03/02 07:12:34;;;;;;;0.73;0.40;;;8.70;85.20;;;;;;5091281;28;20020;-36
2024/03/02 07:17:29;;;;;;;0.30;0.22;;;8.70;85.20;;;;;;5091086;28;20059;-36
2024/03/02 07:19:54;;;;;;;0.40;0.20;;;8.60;85.20;;;;;;5091080;28;20032;-36
2024/03/02 07:22:20;;;;;;;2.95;0.40;;;8.60;85.40;;;;;;5092347;28;20024;-35
2024/03/02 07:24:46;;;;;;;0.38;0.32;;;8.60;85.40;;;;;;5094936;28;20085;-38
2024/03/02 07:27:12;;;;;;;0.85;0.57;;;8.70;85.40;;;;;;5095187;28;20012;-45
2024/03/02 07:29:39;;;;;;;0.50;0.50;;;8.70;85.30;;;;;;5093467;28;20028;-34
2024/03/02 07:32:05;;;;;;;1.17;0.50;;;8.70;85.30;;;;;;5095013;28;20027;-37
2024/03/02 07:34:31;;;;;;;1.05;0.60;;;8.60;85.20;;;;;;5094636;28;20029;-35
2024/03/02 07:36:57;;;;;;;1.35;0.40;;;8.60;85.20;;;;;;5094417;28;20374;-37
2024/03/02 07:39:23;;;;;;;0.47;0.35;;;8.60;85.20;;;;;;5094474;28;20080;-36
2024/03/02 07:41:50;;;;;;;2.22;0.50;;;8.60;85.30;;;;;;5094488;28;20056;-39
2024/03/02 07:44:16;;;;;;;1.10;0.50;;;8.60;85.20;;;;;;5094538;28;20078;-37
2024/03/02 07:46:43;;;;;;;2.90;0.82;;;8.70;85.20;;;;;;5094728;28;20039;-37
2024/03/02 07:49:09;;;;;;;1.23;0.65;;;8.80;85.10;;;;;;5094172;28;20020;-36
2024/03/02 07:51:34;;;;;;;3.22;0.50;;;8.80;85.60;;;;;;5094401;28;20073;-37
2024/03/02 07:54:00;;;;;;;0.85;0.40;;;8.90;85.10;;;;;;5094302;28;20020;-36
2024/03/02 07:56:26;;;;;;;0.80;0.60;;;8.90;85.00;;;;;;5094243;28;20024;-37
2024/03/02 07:58:52;;;;;;;2.13;0.40;;;9.00;84.90;;;;;;5092759;28;20036;-36
2024/03/02 08:01:17;;;;;;;1.17;0.40;;;9.00;84.60;;;;;;5094071;28;20028;-36
2024/03/02 08:03:50;;;;;;;0.85;0.50;;;9.10;84.40;;;;;;5094035;28;20056;-36
2024/03/02 08:06:17;;;;;;;1.27;0.40;;;9.20;84.30;;;;;;5094293;28;20475;-37
2024/03/02 08:08:43;;;;;;;1.90;0.45;;;9.20;84.50;;;;;;5093574;28;20016;-35
2024/03/02 08:11:08;;;;;;;1.27;0.50;;;9.30;84.70;;;;;;5093960;28;20064;-37
2024/03/02 08:13:35;;;;;;;1.17;0.50;;;9.30;85.30;;;;;;5094013;28;20023;-36
2024/03/02 08:16:03;;;;;;;0.77;0.40;;;9.40;85.00;;;;;;5094227;28;20327;-37
2024/03/02 08:18:28;;;;;;;1.23;0.57;;;9.50;84.90;;;;;;5093996;28;20465;-35
2024/03/02 08:20:54;;;;;;;1.58;0.80;;;9.50;84.80;;;;;;5093602;28;20102;-36
2024/03/02 08:23:20;;;;;;;1.55;0.40;;;9.60;84.70;;;;;;5093923;28;20027;-36
2024/03/02 08:25:45;;;;;;;1.30;0.68;;;9.70;84.70;;;;;;5093866;28;20059;-36
2024/03/02 08:28:11;;;;;;;0.50;0.30;;;9.80;84.50;;;;;;5093462;28;20035;-36
2024/03/02 08:30:36;;;;;;;1.95;0.40;;;9.80;85.10;;;;;;5093456;28;20556;-37
2024/03/02 08:33:02;;;;;;;0.50;0.32;;;9.90;85.00;;;;;;5093207;28;20121;-37
2024/03/02 08:35:28;;;;;;;0.88;0.43;;;10.00;85.00;;;;;;5092673;28;20072;-36
2024/03/02 08:37:53;;;;;;;1.35;0.57;;;10.00;84.80;;;;;;5093525;28;20027;-36
2024/03/02 08:40:19;;;;;;;2.05;0.40;;;10.00;84.50;;;;;;5093426;28;20051;-36
2024/03/02 08:42:45;;;;;;;1.88;0.60;;;10.00;84.20;;;;;;5093675;28;20307;-37
2024/03/02 08:45:11;;;;;;;2.13;0.50;;;10.10;84.40;;;;;;5093427;28;20016;-34
2024/03/02 08:47:36;;;;;;;1.88;0.60;;;10.10;84.60;;;;;;5093069;28;20034;-37
2024/03/02 08:50:03;;;;;;;0.85;0.55;;;10.10;84.20;;;;;;5093356;28;20016;-45
2024/03/02 08:52:29;;;;;;;3.92;0.70;;;10.10;83.60;;;;;;5092981;28;20024;-49
2024/03/02 08:54:54;;;;;;;1.63;0.38;;;10.10;83.40;;;;;;5093103;28;20383;-37
2024/03/02 08:57:21;;;;;;;3.88;0.63;;;10.10;82.80;;;;;;5092899;28;20024;-37
2024/03/02 08:59:46;;;;;;;3.67;0.60;;;10.10;82.40;;;;;;5093010;28;20043;-37
2024/03/02 09:02:12;;;;;;;0.70;0.40;;;10.10;82.40;;;;;;5093046;28;20472;-40
2024/03/02 09:04:37;;;;;;;1.45;0.82;;;10.10;85.50;;;;;;5093097;28;20456;-36
2024/03/02 09:07:03;;;;;;;0.77;0.50;;;10.10;86.10;;;;;;5092717;28;20024;-36
2024/03/02 09:09:29;;;;;;;1.85;0.60;;;10.10;85.20;;;;;;5092463;28;20081;-36
2024/03/02 09:11:54;;;;;;;1.35;0.70;;;10.20;84.50;;;;;;5093043;28;20081;-37
2024/03/02 09:14:21;;;;;;;1.45;0.57;;;10.20;84.00;;;;;;5092844;28;20047;-38
2024/03/02 09:16:46;;;;;;;1.20;0.50;;;10.20;83.20;;;;;;5092445;28;20024;-37
2024/03/02 09:19:12;;;;;;;2.05;0.43;;;10.20;84.60;;;;;;5092614;28;20039;-37
2024/03/02 09:21:37;;;;;;;0.73;0.60;;;10.30;84.40;;;;;;5092658;28;20353;-36
2024/03/02 09:24:03;;;;;;;2.88;0.77;;;10.30;84.10;;;;;;5092440;28;20177;-36
2024/03/02 09:26:29;;;;;;;2.55;0.60;;;10.30;83.80;;;;;;5092372;28;20074;-37
2024/03/02 09:28:55;;;;;;;1.00;0.65;;;10.30;84.70;;;;;;5092509;28;20436;-36
2024/03/02 09:31:20;;;;;;;1.75;0.70;;;10.30;84.40;;;;;;5092383;28;20366;-35
2024/03/02 09:33:46;;;;;;;1.10;0.57;;;10.30;83.80;;;;;;5090554;28;20082;-37
2024/03/02 09:36:19;;;;;;;0.85;0.45;;;10.30;83.20;;;;;;5092332;28;20070;-37
2024/03/02 09:38:45;;;;;;;2.40;0.65;;;10.30;84.90;;;;;;5091877;28;20073;-36
2024/03/02 09:41:10;;;;;;;1.52;0.68;;;10.30;85.90;;;;;;5092509;28;20032;-36
2024/03/02 09:43:36;;;;;;;3.03;0.60;;;10.30;84.90;;;;;;5091970;28;20028;-40
2024/03/02 09:46:03;;;;;;;1.67;0.50;;;10.40;83.80;;;;;;5091489;28;20457;-36
2024/03/02 09:48:29;;;;;;;2.35;0.70;;;10.30;83.50;;;;;;5092169;28;20024;-37
2024/03/02 09:50:55;;;;;;;1.33;0.40;;;10.40;83.90;;;;;;5092126;28;20035;-36
2024/03/02 09:53:21;;;;;;;1.90;0.70;;;10.40;85.30;;;;;;5091972;28;20031;-36
2024/03/02 09:55:47;;;;;;;1.67;0.55;;;10.40;85.10;;;;;;5091941;28;20016;-36
2024/03/02 09:58:13;;;;;;;3.00;0.65;;;10.40;85.70;;;;;;5091775;28;20035;-36
2024/03/02 10:00:39;;;;;;;2.50;0.60;;;10.40;85.50;;;;;;5091868;28;20495;-37
2024/03/02 10:03:05;;;;;;;1.95;0.50;;;10.50;84.70;;;;;;5091772;28;20496;-37
2024/03/02 10:05:31;;;;;;;1.55;0.45;;;10.50;84.90;;;;;;5091799;28;20195;-37
2024/03/02 10:08:02;;;;;;;2.15;0.63;;;10.50;85.50;;;;;;5091591;28;20043;-34
2024/03/02 10:10:42;;;;;;;2.22;0.60;;;10.60;85.80;;;;;;5091980;28;20023;-37
2024/03/02 10:13:10;;;;;;;1.52;0.60;;;10.60;84.90;;;;;;5091989;28;20047;-37
2024/03/02 10:15:38;;;;;;;2.38;0.60;;;10.70;84.40;;;;;;5091667;28;20104;-36
2024/03/02 10:18:11;;;;;;;5.65;0.95;;;10.70;83.50;;;;;;5091675;28;20437;-37
2024/03/02 10:20:37;;;;;;;;;;;10.80;83.60;;;;;;5092308;28;20035;-36
2024/03/02 10:23:14;;;;;;;1.23;0.50;;;10.80;83.60;;;;;;5091884;28;20368;-37
2024/03/02 10:25:41;;;;;;;4.07;0.80;;;10.90;83.30;;;;;;5091767;28;20088;-36
2024/03/02 10:28:06;;;;;;;2.08;0.40;;;10.90;83.00;;;;;;5091416;28;20020;-36
2024/03/02 10:30:33;;;;;;;1.30;0.52;;;11.00;83.60;;;;;;5090302;28;20463;-36
2024/03/02 10:33:01;;;;;;;2.92;0.35;;;11.00;83.90;;;;;;5091730;28;20012;-35
2024/03/02 10:35:27;;;;;;;2.40;0.82;;;11.10;83.70;;;;;;5091378;28;20098;-37
2024/03/02 10:37:53;;;;;;;3.22;0.63;;;11.20;84.10;;;;;;5091454;28;20402;-36
2024/03/02 10:40:21;;;;;;;0.98;0.47;;;11.30;84.20;;;;;;5091391;28;20027;-37
2024/03/02 10:42:47;;;;;;;2.95;0.85;;;11.30;83.20;;;;;;5091378;28;20024;-36
2024/03/02 10:45:15;;;;;;;3.55;0.80;;;11.40;82.60;;;;;;5091451;28;20516;-36
2024/03/02 10:47:42;;;;;;;2.10;0.50;;;11.40;82.30;;;;;;5091176;28;20020;-36
2024/03/02 10:50:08;;;;;;;1.05;0.70;;;11.50;81.40;;;;;;5091553;28;20487;-37
2024/03/02 10:52:38;;;;;;;1.63;0.65;;;11.50;80.80;;;;;;5091236;28;20029;-33
2024/03/02 10:55:05;;;;;;;2.47;0.50;;;11.50;80.20;;;;;;5091463;28;20032;-36
2024/03/02 10:57:56;;;;;;;1.42;0.55;;;11.60;79.70;;;;;;5092681;28;20020;-35
2024/03/02 11:00:32;;;;;;;2.85;0.80;;;11.60;79.00;;;;;;5094961;28;20047;-38
2024/03/02 11:03:05;;;;;;;1.58;0.50;;;11.70;78.80;;;;;;5095250;28;20035;-38
2024/03/02 11:05:35;;;;;;;;;;;11.70;77.60;;;;;;5095781;28;20051;-42
2024/03/02 11:08:06;;;;;;;1.75;0.70;;;11.80;78.20;;;;;;5094950;28;19915;-42
2024/03/02 11:10:40;;;;;;;1.00;0.50;;;11.80;78.00;;;;;;5095125;28;20044;-37
2024/03/02 11:13:11;;;;;;;0.63;0.40;;;11.80;77.30;;;;;;5094759;28;20028;-37
2024/03/02 11:15:37;;;;;;;1.67;0.77;;;11.90;77.20;;;;;;5095166;28;20103;-37
2024/03/02 11:18:08;;;;;;;2.85;0.60;;;11.90;76.90;;;;;;5095123;28;20036;-36
2024/03/02 11:20:38;;;;;;;1.48;0.40;;;12.00;76.40;;;;;;5094878;28;20028;-36
2024/03/02 11:23:09;;;;;;;0.98;0.60;;;12.00;76.00;;;;;;5094964;28;20391;-36
2024/03/02 11:25:35;;;;;;;1.90;0.40;;;12.00;75.90;;;;;;5094743;28;20085;-37
2024/03/02 11:28:03;;;;;;;2.03;0.60;;;12.10;75.40;;;;;;5094907;28;20533;-36
2024/03/02 11:30:34;;;;;;;1.60;0.75;;;12.10;74.70;;;;;;5094659;28;20021;-37
2024/03/02 11:33:08;;;;;;;1.33;0.68;;;12.10;74.70;;;;;;5095118;28;20036;-36
2024/03/02 11:35:34;;;;;;;;;;;12.20;74.50;;;;;;5094577;28;20071;-36
2024/03/02 11:38:03;;;;;;;1.70;0.55;;;12.20;74.70;;;;;;5094592;28;20264;-43
2024/03/02 11:40:29;;;;;;;1.48;0.70;;;12.20;74.70;;;;;;5094832;28;20361;-35
2024/03/02 11:42:55;;;;;;;1.85;0.70;;;12.20;74.00;;;;;;5094392;28;20473;-35
2024/03/02 11:45:27;;;;;;;1.00;0.60;;;12.20;73.30;;;;;;5094537;28;20024;-43
2024/03/02 11:47:57;;;;;;;1.73;0.60;;;12.30;73.10;;;;;;5092809;28;20507;-40
2024/03/02 11:50:30;;;;;;;1.33;0.63;;;12.30;73.00;;;;;;5094367;28;20526;-36
2024/03/02 11:52:57;;;;;;;3.65;1.20;;;12.40;72.70;;;;;;5094229;28;20035;-38
2024/03/02 11:55:25;;;;;;;1.45;0.68;;;12.40;73.20;;;;;;5093012;28;20023;-36
2024/03/02 11:57:52;;;;;;;1.85;0.65;;;12.40;73.00;;;;;;5094093;28;20031;-37
2024/03/02 12:00:19;;;;;;;1.00;0.60;;;12.50;73.20;;;;;;5094455;28;20479;-37
2024/03/02 12:02:49;;;;;;;1.83;0.60;;;12.50;72.90;;;;;;5093976;28;20028;-35
2024/03/02 12:05:19;;;;;;;0.90;0.50;;;12.50;72.40;;;;;;5094281;28;20496;-36
2024/03/02 12:07:45;;;;;;;0.70;0.52;;;12.50;72.70;;;;;;5093508;28;20020;-36
2024/03/02 12:10:12;;;;;;;1.17;0.43;;;12.50;78.00;;;;;;5093937;28;20157;-38
2024/03/02 12:12:37;;;;;;;1.95;0.60;;;12.60;79.60;;;;;;5093695;28;20099;-37
2024/03/02 12:15:03;;;;;;;1.30;0.57;;;12.70;80.30;;;;;;5094194;28;20024;-37
2024/03/02 12:17:29;;;;;;;1.80;0.50;;;12.80;80.40;;;;;;5093509;28;20035;-38
2024/03/02 12:19:56;;;;;;;1.10;0.50;;;12.80;79.80;;;;;;5093826;28;20028;-37
2024/03/02 12:22:21;;;;;;;1.85;0.63;;;12.80;80.80;;;;;;5093700;28;20032;-37
2024/03/02 12:24:47;;;;;;;2.40;0.70;;;12.90;80.20;;;;;;5093687;28;20097;-37
2024/03/02 12:27:14;;;;;;;0.45;0.40;;;13.00;79.30;;;;;;5094022;28;20052;-36
2024/03/02 12:29:40;;;;;;;1.52;0.55;;;13.10;78.80;;;;;;5093612;28;20024;-35
2024/03/02 12:32:06;;;;;;;0.82;0.43;;;13.10;80.20;;;;;;5093591;28;20049;-36
2024/03/02 12:34:32;;;;;;;0.95;0.40;;;13.10;80.80;;;;;;5093449;28;20036;-37
2024/03/02 12:36:58;;;;;;;0.60;0.40;;;13.20;80.60;;;;;;5093148;28;20384;-37
2024/03/02 12:39:23;;;;;;;0.57;0.40;;;13.20;80.70;;;;;;5093710;28;20028;-36
2024/03/02 12:41:50;;;;;;;1.15;0.50;;;13.30;80.20;;;;;;5093111;28;20020;-37
2024/03/02 12:44:19;;;;;;;3.33;0.60;;;13.30;80.40;;;;;;5093278;28;20055;-37
2024/03/02 12:46:46;;;;;;;1.63;0.95;;;13.30;79.30;;;;;;5092999;28;20076;-37
2024/03/02 12:49:14;;;;;;;1.42;0.60;;;13.40;78.30;;;;;;5092724;28;20020;-36
2024/03/02 12:51:41;;;;;;;2.22;0.85;;;13.40;79.30;;;;;;5092994;28;20486;-38
2024/03/02 12:54:10;;;;;;;1.83;0.70;;;13.40;78.10;;;;;;5092863;28;20035;-38
2024/03/02 12:56:45;;;;;;;2.10;0.70;;;13.50;78.90;;;;;;5092943;28;20051;-38
2024/03/02 12:59:17;;;;;;;0.88;0.60;;;13.50;76.90;;;;;;5092857;28;20043;-37